createdAt,value
2018-10-06T00:00:11.497Z,25.37
2018-10-06T00:02:39.673Z,25.30
2018-10-06T00:05:07.882Z,26.53
2018-10-06T00:07:36.053Z,21.07
2018-10-06T00:10:04.333Z,25.37
2018-10-06T00:12:32.517Z,25.10
2018-10-06T00:15:00.703Z,25.53
2018-10-06T00:17:28.932Z,27.80
2018-10-06T00:19:57.891Z,25.40
2018-10-06T00:22:26.898Z,24.17
2018-10-06T00:24:55.417Z,27.87
2018-10-06T00:27:24.236Z,28.30
2018-10-06T00:29:52.447Z,30.77
2018-10-06T00:32:20.644Z,29.70
2018-10-06T00:34:49.025Z,29.47
2018-10-06T00:37:17.210Z,29.43
2018-10-06T00:39:45.409Z,28.23
2018-10-06T00:42:13.621Z,27.57
2018-10-06T00:44:41.814Z,23.13
2018-10-06T00:47:10.019Z,25.20
2018-10-06T00:49:38.226Z,29.17
2018-10-06T00:52:06.448Z,20.33
2018-10-06T00:54:34.705Z,21.73
2018-10-06T00:57:02.879Z,24.90
2018-10-06T00:59:31.069Z,27.43
2018-10-06T01:01:59.237Z,22.53
2018-10-06T01:04:27.412Z,22.30
2018-10-06T01:06:55.627Z,21.90
2018-10-06T01:09:23.805Z,22.03
2018-10-06T01:11:51.993Z,24.63
2018-10-06T01:14:20.179Z,26.37
2018-10-06T01:16:48.369Z,25.40
2018-10-06T01:19:16.739Z,26.00
2018-10-06T01:21:44.925Z,27.20
2018-10-06T01:24:13.152Z,26.10
2018-10-06T01:26:41.325Z,29.33
2018-10-06T01:29:09.513Z,30.57
2018-10-06T01:31:37.744Z,30.67
2018-10-06T01:34:05.952Z,30.60
2018-10-06T01:36:34.139Z,32.77
2018-10-06T01:39:02.350Z,29.27
2018-10-06T01:41:30.522Z,34.80
2018-10-06T01:43:58.769Z,33.43
2018-10-06T01:46:26.953Z,31.87
2018-10-06T01:48:55.125Z,28.67
2018-10-06T01:51:23.308Z,25.37
2018-10-06T01:53:51.481Z,27.50
2018-10-06T01:56:19.686Z,22.57
2018-10-06T01:58:49.863Z,24.50
2018-10-06T02:01:18.050Z,23.33
2018-10-06T02:03:46.225Z,22.33
2018-10-06T02:06:14.393Z,19.37
2018-10-06T02:08:42.620Z,23.00
2018-10-06T02:11:10.778Z,20.37
2018-10-06T02:13:38.968Z,22.43
2018-10-06T02:16:07.156Z,19.13
2018-10-06T02:18:35.325Z,17.53
2018-10-06T02:21:03.574Z,19.93
2018-10-06T02:23:31.739Z,22.03
2018-10-06T02:25:59.904Z,18.23
2018-10-06T02:28:28.092Z,19.60
2018-10-06T02:30:56.267Z,20.63
2018-10-06T02:33:24.496Z,21.90
2018-10-06T02:35:52.651Z,23.00
2018-10-06T02:38:20.830Z,19.97
2018-10-06T02:40:49.105Z,18.77
2018-10-06T02:43:17.308Z,23.00
2018-10-06T02:45:45.526Z,21.80
2018-10-06T02:48:13.708Z,20.43
2018-10-06T02:50:41.976Z,19.37
2018-10-06T02:53:10.398Z,21.70
2018-10-06T02:55:38.569Z,19.87
2018-10-06T02:58:06.816Z,20.70
2018-10-06T03:00:35.073Z,19.73
2018-10-06T03:03:03.234Z,20.00
2018-10-06T03:05:31.513Z,19.27
2018-10-06T03:07:59.689Z,18.20
2018-10-06T03:10:28.063Z,17.50
2018-10-06T03:12:56.241Z,17.43
2018-10-06T03:15:24.432Z,18.83
2018-10-06T03:17:52.603Z,18.60
2018-10-06T03:20:20.837Z,18.23
2018-10-06T03:22:49.033Z,16.33
2018-10-06T03:25:17.281Z,17.67
2018-10-06T03:27:45.466Z,19.43
2018-10-06T03:30:13.647Z,15.83
2018-10-06T03:32:41.822Z,18.33
2018-10-06T03:35:10.025Z,19.97
2018-10-06T03:37:38.201Z,24.20
2018-10-06T03:40:06.384Z,22.30
2018-10-06T03:42:34.570Z,17.93
2018-10-06T03:45:02.777Z,17.00
2018-10-06T03:47:30.976Z,20.80
2018-10-06T03:49:59.159Z,16.27
2018-10-06T03:52:27.342Z,15.70
2018-10-06T03:54:55.513Z,14.47
2018-10-06T03:57:23.670Z,13.53
2018-10-06T03:59:51.872Z,16.23
2018-10-06T04:02:20.045Z,15.03
2018-10-06T04:04:48.229Z,13.13
2018-10-06T04:07:16.423Z,15.27
2018-10-06T04:09:44.586Z,15.43
2018-10-06T04:12:12.810Z,15.67
2018-10-06T04:14:41.015Z,15.07
2018-10-06T04:17:09.209Z,14.30
2018-10-06T04:19:37.382Z,18.97
2018-10-06T04:22:05.545Z,17.37
2018-10-06T04:24:33.745Z,15.03
2018-10-06T04:27:01.941Z,15.27
2018-10-06T04:29:30.096Z,20.53
2018-10-06T04:31:58.280Z,15.10
2018-10-06T04:34:26.457Z,21.60
2018-10-06T04:36:54.661Z,17.53
2018-10-06T04:39:22.828Z,16.53
2018-10-06T04:41:50.992Z,18.23
2018-10-06T04:44:19.166Z,21.67
2018-10-06T04:46:47.353Z,17.90
2018-10-06T04:49:15.557Z,23.13
2018-10-06T04:51:43.733Z,14.17
2018-10-06T04:54:11.897Z,14.63
2018-10-06T04:56:40.066Z,13.20
2018-10-06T04:59:08.238Z,17.70
2018-10-06T05:01:36.465Z,14.90
2018-10-06T05:04:04.625Z,15.13
2018-10-06T05:06:32.837Z,15.77
2018-10-06T05:09:01.010Z,18.17
2018-10-06T05:11:29.188Z,13.07
2018-10-06T05:13:57.368Z,14.77
2018-10-06T05:16:25.594Z,13.67
2018-10-06T05:18:53.768Z,14.77
2018-10-06T05:21:21.952Z,15.17
2018-10-06T05:23:50.141Z,13.37
2018-10-06T05:26:18.407Z,14.77
2018-10-06T05:28:46.593Z,16.80
2018-10-06T05:31:14.769Z,16.43
2018-10-06T05:33:42.959Z,13.87
2018-10-06T05:36:11.122Z,15.20
2018-10-06T05:38:39.299Z,12.77
2018-10-06T05:41:07.517Z,15.57
2018-10-06T05:43:35.702Z,14.87
2018-10-06T05:46:03.890Z,16.23
2018-10-06T05:48:32.065Z,14.07
2018-10-06T05:51:00.247Z,13.27
2018-10-06T05:53:28.453Z,14.13
2018-10-06T05:55:56.690Z,13.00
2018-10-06T05:58:24.895Z,25.47
2018-10-06T06:00:53.073Z,19.27
2018-10-06T06:03:21.268Z,37.40
2018-10-06T06:05:49.481Z,56.23
2018-10-06T06:08:17.663Z,42.00
2018-10-06T06:10:45.840Z,32.87
2018-10-06T06:13:14.021Z,20.13
2018-10-06T06:15:42.246Z,18.90
2018-10-06T06:18:10.465Z,19.43
2018-10-06T06:20:38.627Z,19.10
2018-10-06T06:23:06.869Z,19.10
2018-10-06T06:25:35.065Z,12.57
2018-10-06T06:28:03.324Z,18.30
2018-10-06T06:30:31.543Z,15.03
2018-10-06T06:32:59.748Z,15.03
2018-10-06T06:35:27.934Z,18.03
2018-10-06T06:37:56.110Z,17.53
2018-10-06T06:40:24.392Z,15.67
2018-10-06T06:42:52.628Z,13.43
2018-10-06T06:45:20.858Z,14.47
2018-10-06T06:47:49.029Z,14.33
2018-10-06T06:50:17.208Z,10.80
2018-10-06T06:52:45.377Z,17.37
2018-10-06T06:55:13.601Z,16.13
2018-10-06T06:57:41.776Z,17.73
2018-10-06T07:00:09.968Z,14.40
2018-10-06T07:02:38.133Z,14.47
2018-10-06T07:05:06.312Z,13.40
2018-10-06T07:07:34.511Z,13.90
2018-10-06T07:10:02.933Z,16.27
2018-10-06T07:12:31.116Z,12.70
2018-10-06T07:14:59.392Z,14.83
2018-10-06T07:17:28.337Z,13.17
2018-10-06T07:19:56.618Z,15.57
2018-10-06T07:22:24.793Z,30.00
2018-10-06T07:24:52.948Z,13.37
2018-10-06T07:27:21.125Z,26.83
2018-10-06T07:29:49.289Z,14.87
2018-10-06T07:32:17.488Z,21.37
2018-10-06T07:34:45.650Z,20.30
2018-10-06T07:37:13.833Z,25.50
2018-10-06T07:39:42.008Z,25.10
2018-10-06T07:42:10.180Z,15.10
2018-10-06T07:44:38.437Z,16.60
2018-10-06T07:47:06.604Z,15.40
2018-10-06T07:49:34.772Z,14.60
2018-10-06T07:52:03.544Z,17.40
2018-10-06T07:54:31.735Z,16.83
2018-10-06T07:56:59.909Z,14.13
2018-10-06T07:59:28.157Z,18.77
2018-10-06T08:01:56.420Z,13.60
2018-10-06T08:04:24.625Z,18.53
2018-10-06T08:06:52.816Z,12.43
2018-10-06T08:09:20.996Z,14.23
2018-10-06T08:11:49.172Z,16.57
2018-10-06T08:14:17.388Z,15.63
2018-10-06T08:16:45.565Z,15.60
2018-10-06T08:19:13.822Z,15.60
2018-10-06T08:21:41.985Z,11.30
2018-10-06T08:24:10.256Z,18.67
2018-10-06T08:26:38.481Z,15.33
2018-10-06T08:29:06.717Z,12.60
2018-10-06T08:31:34.917Z,15.07
2018-10-06T08:34:03.126Z,13.43
2018-10-06T08:36:31.308Z,11.77
2018-10-06T08:38:59.579Z,12.57
2018-10-06T08:41:27.762Z,11.20
2018-10-06T08:43:56.199Z,12.23
2018-10-06T08:46:24.389Z,14.27
2018-10-06T08:48:52.558Z,11.37
2018-10-06T08:51:21.688Z,14.77
2018-10-06T08:53:49.969Z,12.60
2018-10-06T08:56:18.299Z,18.57
2018-10-06T08:58:47.024Z,17.10
2018-10-06T09:01:15.201Z,14.07
2018-10-06T09:03:43.438Z,13.00
2018-10-06T09:06:11.702Z,18.90
2018-10-06T09:08:39.875Z,14.27
2018-10-06T09:11:08.145Z,43.43
2018-10-06T09:13:36.313Z,16.90
2018-10-06T09:16:04.524Z,24.20
2018-10-06T09:18:32.773Z,25.73
2018-10-06T09:21:00.961Z,34.00
2018-10-06T09:23:29.132Z,21.90
2018-10-06T09:25:57.797Z,15.83
2018-10-06T09:28:26.090Z,21.83
2018-10-06T09:30:54.265Z,19.63
2018-10-06T09:33:22.436Z,22.07
2018-10-06T09:35:50.606Z,17.07
2018-10-06T09:38:18.780Z,14.70
2018-10-06T09:40:47.028Z,13.20
2018-10-06T09:43:15.204Z,17.27
2018-10-06T09:45:43.417Z,16.10
2018-10-06T09:48:11.670Z,10.73
2018-10-06T09:50:39.841Z,16.60
2018-10-06T09:53:08.092Z,14.47
2018-10-06T09:55:36.249Z,16.90
2018-10-06T09:58:04.525Z,14.23
2018-10-06T10:00:38.029Z,18.37
2018-10-06T10:03:11.668Z,19.07
2018-10-06T10:05:53.298Z,18.43
2018-10-06T10:08:21.664Z,13.50
2018-10-06T10:10:51.044Z,18.50
2018-10-06T10:13:19.700Z,15.33
2018-10-06T10:15:47.974Z,17.20
2018-10-06T10:18:16.291Z,11.70
2018-10-06T10:20:44.369Z,18.53
2018-10-06T10:23:12.585Z,15.70
2018-10-06T10:25:40.780Z,66.67
2018-10-06T10:28:08.955Z,192.17
2018-10-06T10:30:37.261Z,32.70
2018-10-06T10:33:05.454Z,35.97
2018-10-06T10:35:33.702Z,33.90
2018-10-06T10:38:01.880Z,25.50
2018-10-06T10:40:30.077Z,25.37
2018-10-06T10:42:58.273Z,21.10
2018-10-06T10:45:26.457Z,14.97
2018-10-06T10:47:54.649Z,13.77
2018-10-06T10:50:22.802Z,14.33
2018-10-06T10:52:51.196Z,24.03
2018-10-06T10:55:19.508Z,10.73
2018-10-06T10:57:47.774Z,15.33
2018-10-06T11:00:16.102Z,10.53
2018-10-06T11:02:44.336Z,12.03
2018-10-06T11:05:12.607Z,13.17
2018-10-06T11:07:40.874Z,14.67
2018-10-06T11:10:09.151Z,14.37
2018-10-06T11:12:37.390Z,10.97
2018-10-06T11:15:09.721Z,12.77
2018-10-06T11:17:38.002Z,15.33
2018-10-06T11:20:06.298Z,12.30
2018-10-06T11:22:34.572Z,16.97
2018-10-06T11:25:02.781Z,13.63
2018-10-06T11:27:33.102Z,13.83
2018-10-06T11:30:03.413Z,11.30
2018-10-06T11:32:31.653Z,12.63
2018-10-06T11:34:59.869Z,14.77
2018-10-06T11:37:28.152Z,12.60
2018-10-06T11:39:56.292Z,10.17
2018-10-06T11:42:24.529Z,10.20
2018-10-06T11:44:59.405Z,13.30
2018-10-06T11:47:27.617Z,25.20
2018-10-06T11:49:55.868Z,12.70
2018-10-06T11:52:24.033Z,12.33
2018-10-06T11:54:52.221Z,13.07
2018-10-06T11:57:20.426Z,15.20
2018-10-06T11:59:48.660Z,16.00
2018-10-06T12:02:16.845Z,16.87
2018-10-06T12:04:45.050Z,9.00
2018-10-06T12:07:13.235Z,12.87
2018-10-06T12:09:41.430Z,10.23
2018-10-06T12:12:09.650Z,12.37
2018-10-06T12:14:37.812Z,19.90
2018-10-06T12:17:06.013Z,14.07
2018-10-06T12:19:34.194Z,9.93
2018-10-06T12:22:02.376Z,10.80
2018-10-06T12:24:30.610Z,18.57
2018-10-06T12:26:58.765Z,14.57
2018-10-06T12:29:26.945Z,13.47
2018-10-06T12:31:55.248Z,16.00
2018-10-06T12:34:23.410Z,16.30
2018-10-06T12:36:51.621Z,13.03
2018-10-06T12:39:19.782Z,17.27
2018-10-06T12:41:47.945Z,12.40
2018-10-06T12:44:16.129Z,10.10
2018-10-06T12:46:44.323Z,12.13
2018-10-06T12:49:12.622Z,10.77
2018-10-06T12:51:40.805Z,12.27
2018-10-06T12:54:08.985Z,13.37
2018-10-06T12:56:37.145Z,14.03
2018-10-06T12:59:05.341Z,15.33
2018-10-06T13:01:33.555Z,10.23
2018-10-06T13:04:01.733Z,10.60
2018-10-06T13:06:29.918Z,12.30
2018-10-06T13:08:58.095Z,13.40
2018-10-06T13:11:26.274Z,12.53
2018-10-06T13:13:54.498Z,15.13
2018-10-06T13:16:22.653Z,13.47
2018-10-06T13:18:50.820Z,13.23
2018-10-06T13:21:18.997Z,19.17
2018-10-06T13:23:47.177Z,12.40
2018-10-06T13:26:15.388Z,9.77
2018-10-06T13:28:43.641Z,9.90
2018-10-06T13:31:11.832Z,11.70
2018-10-06T13:33:39.990Z,14.53
2018-10-06T13:36:08.197Z,11.83
2018-10-06T13:38:36.407Z,10.47
2018-10-06T13:41:04.598Z,15.07
2018-10-06T13:43:32.790Z,13.27
2018-10-06T13:46:00.985Z,12.27
2018-10-06T13:48:29.159Z,13.47
2018-10-06T13:50:57.503Z,10.27
2018-10-06T13:53:25.705Z,11.27
2018-10-06T13:55:53.894Z,14.63
2018-10-06T13:58:22.060Z,13.40
2018-10-06T14:00:50.477Z,11.23
2018-10-06T14:03:18.744Z,23.67
2018-10-06T14:05:46.941Z,11.53
2018-10-06T14:08:15.214Z,14.57
2018-10-06T14:10:43.460Z,12.20
2018-10-06T14:13:11.668Z,14.63
2018-10-06T14:15:39.900Z,15.37
2018-10-06T14:18:08.087Z,16.67
2018-10-06T14:20:36.415Z,15.20
2018-10-06T14:23:04.600Z,12.33
2018-10-06T14:25:32.766Z,13.73
2018-10-06T14:28:00.980Z,11.27
2018-10-06T14:30:29.159Z,12.77
2018-10-06T14:32:57.349Z,12.73
2018-10-06T14:35:25.627Z,10.20
2018-10-06T14:37:53.960Z,16.33
2018-10-06T14:40:22.304Z,12.10
2018-10-06T14:42:50.484Z,12.93
2018-10-06T14:45:18.701Z,12.33
2018-10-06T14:47:47.054Z,11.07
2018-10-06T14:50:15.327Z,12.73
2018-10-06T14:52:43.501Z,13.43
2018-10-06T14:55:11.740Z,15.93
2018-10-06T14:57:39.961Z,12.80
2018-10-06T15:00:08.469Z,15.37
2018-10-06T15:02:36.880Z,14.00
2018-10-06T15:05:05.474Z,13.87
2018-10-06T15:07:33.713Z,11.13
2018-10-06T15:10:01.906Z,18.33
2018-10-06T15:12:30.093Z,12.63
2018-10-06T15:14:58.377Z,15.10
2018-10-06T15:17:26.600Z,14.67
2018-10-06T15:19:54.773Z,16.40
2018-10-06T15:22:23.238Z,15.53
2018-10-06T15:24:51.463Z,15.00
2018-10-06T15:27:19.645Z,18.33
2018-10-06T15:29:47.785Z,14.43
2018-10-06T15:32:16.673Z,16.33
2018-10-06T15:34:44.834Z,17.30
2018-10-06T15:37:13.024Z,15.27
2018-10-06T15:39:41.176Z,16.40
2018-10-06T15:42:09.388Z,15.57
2018-10-06T15:44:37.549Z,13.17
2018-10-06T15:47:05.756Z,16.93
2018-10-06T15:49:33.912Z,17.60
2018-10-06T15:52:02.093Z,18.33
2018-10-06T15:54:30.408Z,18.80
2018-10-06T15:56:58.590Z,13.87
2018-10-06T15:59:26.779Z,16.47
2018-10-06T16:01:55.037Z,16.70
2018-10-06T16:04:23.186Z,19.57
2018-10-06T16:06:51.356Z,16.73
2018-10-06T16:09:19.557Z,19.83
2018-10-06T16:11:47.753Z,17.70
2018-10-06T16:14:15.909Z,19.20
2018-10-06T16:16:44.396Z,16.13
2018-10-06T16:19:12.564Z,17.17
2018-10-06T16:21:40.854Z,17.70
2018-10-06T16:24:08.981Z,22.23
2018-10-06T16:26:37.149Z,29.97
2018-10-06T16:29:05.425Z,59.10
2018-10-06T16:31:33.671Z,76.40
2018-10-06T16:34:01.880Z,94.57
2018-10-06T16:36:30.122Z,65.73
2018-10-06T16:38:58.393Z,74.20
2018-10-06T16:41:26.674Z,52.07
2018-10-06T16:43:54.770Z,35.00
2018-10-06T16:46:22.992Z,32.63
2018-10-06T16:48:51.177Z,30.53
2018-10-06T16:51:19.339Z,27.57
2018-10-06T16:53:49.632Z,22.80
2018-10-06T16:56:18.659Z,29.53
2018-10-06T16:58:46.864Z,23.67
2018-10-06T17:01:15.039Z,22.40
2018-10-06T17:03:43.233Z,22.43
2018-10-06T17:06:11.433Z,22.73
2018-10-06T17:08:40.501Z,26.57
2018-10-06T17:11:09.262Z,24.73
2018-10-06T17:13:38.247Z,26.47
2018-10-06T17:16:07.123Z,28.43
2018-10-06T17:18:39.033Z,25.67
2018-10-06T17:21:08.240Z,22.63
2018-10-06T17:23:39.527Z,22.77
2018-10-06T17:26:12.889Z,23.90
2018-10-06T17:28:45.087Z,21.60
2018-10-06T17:31:17.337Z,25.33
2018-10-06T17:33:49.942Z,24.77
2018-10-06T17:36:22.226Z,27.83
2018-10-06T17:38:57.300Z,24.90
2018-10-06T17:41:32.387Z,25.03
2018-10-06T17:44:06.782Z,27.27
2018-10-06T17:46:38.547Z,24.53
2018-10-06T17:49:10.926Z,23.63
2018-10-06T17:51:44.885Z,30.00
2018-10-06T17:54:13.650Z,23.87
2018-10-06T17:56:41.825Z,27.90
2018-10-06T17:59:09.994Z,26.07
2018-10-06T18:01:38.172Z,43.03
2018-10-06T18:04:06.352Z,24.17
2018-10-06T18:06:34.554Z,24.37
2018-10-06T18:09:02.734Z,22.90
2018-10-06T18:11:30.920Z,24.73
2018-10-06T18:13:59.081Z,22.73
2018-10-06T18:16:27.253Z,23.37
2018-10-06T18:18:55.501Z,24.87
2018-10-06T18:21:23.844Z,31.63
2018-10-06T18:23:52.007Z,43.40
2018-10-06T18:26:20.183Z,31.47
2018-10-06T18:28:48.460Z,27.20
2018-10-06T18:31:16.661Z,52.67
2018-10-06T18:33:44.828Z,36.93
2018-10-06T18:36:13.096Z,29.83
2018-10-06T18:38:41.257Z,47.07
2018-10-06T18:41:09.437Z,26.80
2018-10-06T18:43:37.666Z,25.23
2018-10-06T18:46:05.846Z,22.33
2018-10-06T18:48:34.021Z,19.93
2018-10-06T18:51:02.237Z,27.23
2018-10-06T18:53:30.497Z,26.43
2018-10-06T18:55:58.811Z,25.13
2018-10-06T18:58:27.122Z,29.63
2018-10-06T19:00:57.297Z,35.03
2018-10-06T19:03:25.593Z,27.20
2018-10-06T19:05:53.715Z,31.53
2018-10-06T19:08:21.938Z,27.03
2018-10-06T19:10:50.117Z,29.93
2018-10-06T19:13:18.296Z,28.80
2018-10-06T19:15:46.530Z,48.33
2018-10-06T19:18:15.797Z,75.50
2018-10-06T19:20:44.082Z,104.63
2018-10-06T19:23:12.329Z,70.10
2018-10-06T19:25:40.567Z,92.77
2018-10-06T19:28:08.753Z,99.40
2018-10-06T19:30:37.026Z,86.17
2018-10-06T19:33:05.308Z,96.20
2018-10-06T19:35:33.630Z,100.53
2018-10-06T19:38:01.810Z,98.53
2018-10-06T19:40:30.029Z,153.17
2018-10-06T19:42:58.204Z,117.67
2018-10-06T19:45:26.513Z,209.00
2018-10-06T19:47:54.745Z,250.97
2018-10-06T19:50:22.977Z,291.93
2018-10-06T19:52:51.293Z,222.20
2018-10-06T19:55:19.528Z,277.70
2018-10-06T19:57:47.710Z,232.23
2018-10-06T20:00:16.043Z,213.50
2018-10-06T20:02:44.305Z,119.17
2018-10-06T20:05:12.513Z,83.13
2018-10-06T20:07:40.815Z,61.87
2018-10-06T20:10:09.009Z,62.50
2018-10-06T20:12:37.402Z,48.43
2018-10-06T20:15:05.728Z,60.20
2018-10-06T20:17:33.900Z,57.70
2018-10-06T20:20:02.339Z,52.27
2018-10-06T20:22:30.496Z,54.30
2018-10-06T20:24:58.784Z,62.37
2018-10-06T20:27:27.098Z,64.50
2018-10-06T20:29:55.340Z,51.00
2018-10-06T20:32:23.572Z,53.57
2018-10-06T20:34:51.839Z,61.93
2018-10-06T20:37:24.125Z,58.57
2018-10-06T20:39:52.550Z,59.23
2018-10-06T20:42:20.849Z,70.33
2018-10-06T20:44:49.099Z,72.63
2018-10-06T20:47:17.482Z,60.67
2018-10-06T20:49:46.987Z,46.37
2018-10-06T20:52:19.289Z,65.43
2018-10-06T20:54:47.515Z,52.63
2018-10-06T20:57:15.719Z,40.20
2018-10-06T20:59:44.013Z,45.03
2018-10-06T21:02:12.300Z,40.63
2018-10-06T21:04:40.525Z,60.23
2018-10-06T21:07:08.811Z,100.07
2018-10-06T21:09:37.056Z,155.77
2018-10-06T21:12:05.294Z,763.03
2018-10-06T21:14:33.510Z,999.47
2018-10-06T21:17:01.727Z,776.90
2018-10-06T21:19:30.023Z,446.33
2018-10-06T21:21:58.525Z,214.80
2018-10-06T21:24:26.755Z,130.83
2018-10-06T21:26:55.000Z,175.00
2018-10-06T21:29:23.396Z,148.13
2018-10-06T21:31:51.560Z,192.30
2018-10-06T21:34:19.825Z,196.50
2018-10-06T21:36:48.045Z,223.07
2018-10-06T21:39:16.318Z,145.93
2018-10-06T21:41:44.585Z,132.40
2018-10-06T21:44:12.808Z,150.47
2018-10-06T21:46:41.849Z,82.17
2018-10-06T21:49:10.253Z,85.97
2018-10-06T21:51:44.475Z,88.90
2018-10-06T21:54:12.758Z,133.03
2018-10-06T21:56:40.981Z,112.27
2018-10-06T21:59:09.222Z,114.37
2018-10-06T22:01:37.462Z,87.57
2018-10-06T22:04:05.703Z,83.63
2018-10-06T22:06:33.965Z,73.17
2018-10-06T22:09:02.191Z,69.63
2018-10-06T22:11:30.430Z,85.93
2018-10-06T22:13:58.642Z,40.17
2018-10-06T22:16:26.880Z,46.93
2018-10-06T22:18:55.155Z,58.70
2018-10-06T22:21:23.393Z,75.47
2018-10-06T22:23:51.660Z,69.20
2018-10-06T22:26:19.910Z,69.57
2018-10-06T22:28:48.133Z,48.43
2018-10-06T22:31:16.410Z,68.00
2018-10-06T22:33:44.664Z,65.83
2018-10-06T22:36:12.888Z,42.97
2018-10-06T22:38:41.092Z,33.87
2018-10-06T22:41:09.320Z,42.70
2018-10-06T22:43:37.736Z,33.90
2018-10-06T22:46:06.012Z,30.03
2018-10-06T22:48:34.205Z,44.50
2018-10-06T22:51:02.554Z,49.13
2018-10-06T22:53:31.131Z,104.93
2018-10-06T22:55:59.422Z,36.57
2018-10-06T22:58:27.676Z,37.20
2018-10-06T23:00:55.903Z,37.20
2018-10-06T23:03:24.282Z,103.00
2018-10-06T23:05:52.520Z,46.60
2018-10-06T23:08:20.811Z,97.43
2018-10-06T23:10:49.054Z,82.87
2018-10-06T23:13:17.308Z,52.63
2018-10-06T23:15:46.066Z,54.50
2018-10-06T23:18:14.319Z,51.93
2018-10-06T23:20:42.657Z,48.67
2018-10-06T23:23:10.875Z,35.07
2018-10-06T23:25:39.114Z,34.93
2018-10-06T23:28:07.854Z,35.57
2018-10-06T23:30:36.092Z,42.93
2018-10-06T23:33:04.930Z,36.27
2018-10-06T23:35:33.178Z,39.17
2018-10-06T23:38:01.419Z,40.27
2018-10-06T23:40:29.681Z,30.63
2018-10-06T23:42:57.935Z,29.90
2018-10-06T23:45:26.202Z,31.00
2018-10-06T23:47:54.446Z,36.03
2018-10-06T23:50:23.262Z,30.97
2018-10-06T23:52:55.641Z,31.90
2018-10-06T23:55:23.873Z,29.47
2018-10-06T23:57:52.174Z,28.67
